Etusivu
METAR-TAF:

METAR-TAF

Lentoasemat :

Pärnu, Viro

Pärnun lentoasema

Leveyspiiri: 58-25-09N, Pituuspiiri: 024-28-22E, korkeus merenpinnasta: 14 m

Tämänhetkinen sää

Tämä raportti tehtiin 11 tuntia ja 48 minuuttia sitten, kello 13.50 UTC
Tuuli 6 kn pohjoisesta/koillisesta
Lämpötila -4°C
Kosteus 86%
Ilmanpaine 1019 hPa
Näkyvyys: 8000 m
Hajanaisia pilviä 800 ft:n korkeudessa
Hajonneita pilviä 1600 ft:n korkeudessa

METAR: EEPU 171350Z 03006KT 8000 SCT008 BKN016 M04/M06 Q1019

Aika: 03:38 (01:38 UTC)


TAF: puuttuu

Säähavainnot ja -ennusteet yli 4000 lentoasemalta (METAR- ja TAF-raportit).

Käytössä olevat sääasemat on merkitty karttaan keltaisilla ja punaisilla pisteillä.

Aseta hiiri pisteen päälle nähdäksesi sääaseman nimen.

Klikkaa sitten nähdäksesi säähavainnot ja -ennusteet.

Kartan vaihtaminen: klikkaa mustalla rastilla varustettuja vihreitä pisteitä, niin voit zoomata sisään; viivalla varustettua vihreää pistettä, niin voit zoomata ulos tai vihreitä nuolia, niin pääset viereisille kartoille.


METAR-TAF: